Time;durP1;ratioP1;P1;durP2;ratioP2;P2;SDS_P1;SDS_P2;PMS_P1;PMS_P2;Temp;Humidity;BMP_temperature;BMP_pressure;BME280_temperature;BME280_humidity;BME280_pressure;Samples;Min_cycle;Max_cycle;Signal;HPM_P1;HPM_P2
2022/12/05 00:01:21;;;;;;;36.78;20.90;;;4.50;99.90;;;;;;6241575;23;20522;-83
2022/12/05 00:03:49;;;;;;;37.25;20.98;;;4.60;99.90;;;;;;6189006;23;20400;-81
2022/12/05 00:06:16;;;;;;;36.22;22.00;;;4.60;99.90;;;;;;6163645;23;20008;-83
2022/12/05 00:08:42;;;;;;;34.45;21.65;;;4.50;99.90;;;;;;6211399;23;20027;-81
2022/12/05 00:11:17;;;;;;;37.97;23.27;;;4.50;99.90;;;;;;6187759;23;20020;-82
2022/12/05 00:13:43;;;;;;;;;;;4.70;99.90;;;;;;6192299;23;20111;-80
2022/12/05 00:16:11;;;;;;;36.28;21.63;;;4.70;99.90;;;;;;6190145;23;20041;-80
2022/12/05 00:18:37;;;;;;;36.58;21.92;;;4.70;99.90;;;;;;6188781;23;20070;-86
2022/12/05 00:24:38;;;;;;;39.42;21.88;;;4.60;99.90;;;;;;6216762;23;20032;-81
2022/12/05 00:27:04;;;;;;;38.80;20.92;;;4.70;99.90;;;;;;6187442;23;20065;-81
2022/12/05 00:29:30;;;;;;;37.65;22.13;;;4.80;99.90;;;;;;6163890;23;20046;-84
2022/12/05 00:31:56;;;;;;;37.88;22.05;;;4.60;99.90;;;;;;6212206;23;20379;-79
2022/12/05 00:34:22;;;;;;;38.55;23.42;;;4.70;99.90;;;;;;6213178;23;20022;-82
2022/12/05 00:36:47;;;;;;;42.47;23.92;;;4.80;99.90;;;;;;6213896;23;20485;-83
2022/12/05 00:39:14;;;;;;;40.03;23.15;;;4.80;99.90;;;;;;6186689;23;20081;-84
2022/12/05 00:41:40;;;;;;;38.75;22.65;;;4.90;99.90;;;;;;6216423;23;20099;-81
2022/12/05 00:44:06;;;;;;;45.75;23.05;;;4.80;99.90;;;;;;6187245;23;20016;-84
2022/12/05 00:46:34;;;;;;;42.92;23.80;;;4.80;99.90;;;;;;6189190;23;20012;-84
2022/12/05 00:49:01;;;;;;;44.28;24.10;;;4.70;99.90;;;;;;6211516;23;20048;-79
2022/12/05 00:51:32;;;;;;;45.28;25.38;;;4.70;99.90;;;;;;6164165;23;20336;-79
2022/12/05 00:54:00;;;;;;;43.88;25.17;;;4.70;99.90;;;;;;6188191;23;20031;-82
2022/12/05 00:56:27;;;;;;;46.90;25.75;;;4.90;99.90;;;;;;6212477;23;20020;-78
2022/12/05 00:58:56;;;;;;;45.45;25.05;;;4.80;99.90;;;;;;6187469;23;20091;-84
2022/12/05 01:01:35;;;;;;;45.22;24.58;;;4.70;99.90;;;;;;6189634;23;20035;-82
2022/12/05 01:04:13;;;;;;;51.30;25.05;;;4.80;99.90;;;;;;6215761;23;20008;-86
2022/12/05 01:06:40;;;;;;;44.28;24.25;;;4.90;99.90;;;;;;6242984;23;20416;-80
2022/12/05 01:09:06;;;;;;;43.33;24.92;;;5.00;99.90;;;;;;6187866;23;20742;-78
2022/12/05 01:11:35;;;;;;;45.72;25.73;;;4.80;99.90;;;;;;6213716;23;20169;-82
2022/12/05 01:14:00;;;;;;;44.72;24.80;;;5.00;99.90;;;;;;6213042;23;20016;-82
2022/12/05 01:16:34;;;;;;;42.28;23.08;;;4.80;99.90;;;;;;6212725;23;20440;-82
2022/12/05 01:19:04;;;;;;;48.15;23.77;;;5.10;99.90;;;;;;6213392;23;20511;-84
2022/12/05 01:21:30;;;;;;;43.40;23.38;;;5.00;99.90;;;;;;6213907;23;20047;-82
2022/12/05 01:23:56;;;;;;;44.33;23.00;;;4.90;99.90;;;;;;6186997;23;20081;-84
2022/12/05 01:26:22;;;;;;;37.67;22.08;;;5.00;99.90;;;;;;6212863;23;20017;-82
2022/12/05 01:28:49;;;;;;;40.45;21.88;;;5.00;99.90;;;;;;6214932;23;20122;-82
2022/12/05 01:31:27;;;;;;;36.53;20.77;;;5.10;99.90;;;;;;6195930;23;20035;-81
2022/12/05 01:33:54;;;;;;;37.92;20.58;;;5.00;99.90;;;;;;6216033;23;20432;-81
2022/12/05 01:36:23;;;;;;;29.88;18.38;;;5.00;99.90;;;;;;6197021;23;20090;-82
2022/12/05 01:38:50;;;;;;;33.03;20.15;;;5.10;99.90;;;;;;6219961;23;20020;-81
2022/12/05 01:41:25;;;;;;;38.90;19.90;;;5.20;99.90;;;;;;6192109;23;20154;-81
2022/12/05 01:44:11;;;;;;;29.70;17.42;;;5.30;99.90;;;;;;6217224;23;20013;-78
2022/12/05 01:46:52;;;;;;;29.13;17.52;;;5.10;99.90;;;;;;6067273;23;20023;-84
2022/12/05 01:49:32;;;;;;;28.60;16.60;;;5.30;99.90;;;;;;6065687;23;20026;-81
2022/12/05 01:52:02;;;;;;;30.50;17.20;;;5.20;99.90;;;;;;6068582;23;20156;-80
2022/12/05 01:54:28;;;;;;;26.65;16.88;;;5.50;99.90;;;;;;6091805;23;20014;-86
2022/12/05 01:57:01;;;;;;;27.42;15.50;;;5.10;99.90;;;;;;6044605;23;20026;-80
2022/12/05 01:59:31;;;;;;;23.20;15.70;;;5.50;99.90;;;;;;6062986;23;20093;-83
2022/12/05 02:01:57;;;;;;;24.85;15.75;;;5.40;99.90;;;;;;6068059;23;20148;-81
2022/12/05 02:04:23;;;;;;;24.13;14.48;;;5.30;99.90;;;;;;6064111;23;20092;-81
2022/12/05 02:06:48;;;;;;;26.73;15.20;;;5.30;99.90;;;;;;6063171;23;20549;-81
2022/12/05 02:09:14;;;;;;;24.10;15.32;;;5.40;99.90;;;;;;6087929;23;20066;-80
2022/12/05 02:11:52;;;;;;;22.25;14.57;;;5.20;99.90;;;;;;6089861;23;20107;-82
2022/12/05 02:14:41;;;;;;;22.63;14.80;;;5.40;99.90;;;;;;6042433;23;20019;-80
2022/12/05 02:17:33;;;;;;;21.58;13.15;;;5.50;99.90;;;;;;6089728;23;20026;-82
2022/12/05 02:20:25;;;;;;;22.23;13.27;;;5.20;99.90;;;;;;6063022;23;20027;-81
2022/12/05 02:23:10;;;;;;;21.63;13.15;;;5.30;99.90;;;;;;6109905;23;20021;-82
2022/12/05 02:25:53;;;;;;;23.80;14.07;;;5.20;99.90;;;;;;6189428;23;20015;-82
2022/12/05 02:28:47;;;;;;;23.05;13.93;;;5.30;99.90;;;;;;6213192;23;20286;-83
2022/12/05 02:31:28;;;;;;;23.10;13.90;;;5.20;99.90;;;;;;6189900;23;20016;-78
2022/12/05 02:34:26;;;;;;;21.77;13.15;;;5.20;99.90;;;;;;6217029;23;20078;-80
2022/12/05 02:37:10;;;;;;;20.00;13.10;;;5.40;99.90;;;;;;6213708;23;20332;-81
2022/12/05 02:40:04;;;;;;;21.35;12.65;;;5.30;99.90;;;;;;6185497;23;20020;-81
2022/12/05 02:42:42;;;;;;;20.27;12.32;;;5.30;99.90;;;;;;6188758;23;20035;-83
2022/12/05 02:45:12;;;;;;;21.60;11.90;;;5.30;99.90;;;;;;6189251;23;20447;-83
2022/12/05 02:47:44;;;;;;;20.25;12.27;;;5.40;99.90;;;;;;6191027;23;20038;-81
2022/12/05 02:50:16;;;;;;;19.95;12.88;;;5.10;99.90;;;;;;6214627;23;20020;-83
2022/12/05 02:52:46;;;;;;;23.27;12.32;;;5.30;99.90;;;;;;6215936;23;20023;-84
2022/12/05 02:55:14;;;;;;;18.42;12.00;;;5.20;99.90;;;;;;6216724;23;20378;-84
2022/12/05 02:57:44;;;;;;;19.65;11.77;;;5.30;99.90;;;;;;6221482;23;20016;-84
2022/12/05 03:00:10;;;;;;;19.85;11.80;;;5.00;99.90;;;;;;6192820;23;20016;-84
2022/12/05 03:02:40;;;;;;;17.67;12.10;;;5.30;99.90;;;;;;6217102;23;20016;-84
2022/12/05 03:05:49;;;;;;;19.08;11.73;;;5.30;99.90;;;;;;6191907;23;20067;-81
2022/12/05 03:08:20;;;;;;;17.40;11.38;;;5.10;99.90;;;;;;6067013;23;20032;-84
2022/12/05 03:10:47;;;;;;;19.50;10.88;;;5.30;99.90;;;;;;6066754;23;20081;-82
2022/12/05 03:13:19;;;;;;;16.00;11.27;;;5.00;99.90;;;;;;6092199;23;20050;-82
2022/12/05 03:15:48;;;;;;;19.35;11.02;;;5.30;99.90;;;;;;6043175;23;20031;-81
2022/12/05 03:18:23;;;;;;;17.20;11.35;;;5.10;99.90;;;;;;6042497;23;20014;-81
2022/12/05 03:21:12;;;;;;;17.58;11.25;;;5.20;99.90;;;;;;6090858;23;20354;-82
2022/12/05 03:23:47;;;;;;;17.90;11.10;;;5.00;99.90;;;;;;6069181;23;20027;-79
2022/12/05 03:26:45;;;;;;;16.13;11.18;;;5.30;99.90;;;;;;6071422;23;20072;-85
2022/12/05 03:29:23;;;;;;;16.45;11.25;;;5.00;99.90;;;;;;6044482;23;20431;-83
2022/12/05 03:32:06;;;;;;;19.83;11.10;;;5.20;99.90;;;;;;6042497;23;20018;-83
2022/12/05 03:34:55;;;;;;;19.77;11.32;;;5.30;99.90;;;;;;6067318;23;20061;-81
2022/12/05 03:37:35;;;;;;;16.35;10.68;;;5.00;99.90;;;;;;6065550;23;20027;-84
2022/12/05 03:40:10;;;;;;;17.40;11.65;;;5.20;99.90;;;;;;6065560;23;20019;-81
2022/12/05 03:42:42;;;;;;;20.60;12.32;;;5.10;99.90;;;;;;6065131;23;20015;-83
2022/12/05 03:45:14;;;;;;;21.40;11.25;;;5.00;99.90;;;;;;6215135;23;20012;-80
2022/12/05 03:47:53;;;;;;;17.13;11.63;;;5.20;99.90;;;;;;6215861;23;20378;-82
2022/12/05 03:50:24;;;;;;;18.00;12.60;;;5.10;99.90;;;;;;6217353;23;20032;-82
2022/12/05 03:53:31;;;;;;;18.75;11.50;;;5.20;99.90;;;;;;6194169;23;20432;-79
2022/12/05 03:56:10;;;;;;;21.60;12.38;;;5.20;99.90;;;;;;6070019;23;20015;-83
2022/12/05 03:58:45;;;;;;;19.42;11.90;;;4.90;99.90;;;;;;6070555;23;20018;-81
2022/12/05 04:01:13;;;;;;;20.17;11.93;;;5.10;99.90;;;;;;6048281;23;20018;-83
2022/12/05 04:03:46;;;;;;;20.50;12.73;;;5.30;99.90;;;;;;6071069;23;20033;-84
2022/12/05 04:09:50;;;;;;;24.58;12.57;;;5.30;99.90;;;;;;6066504;23;20029;-84
2022/12/05 04:12:25;;;;;;;31.42;14.20;;;4.90;99.90;;;;;;6092880;23;20685;-83
2022/12/05 04:14:57;;;;;;;25.88;13.68;;;5.00;99.90;;;;;;6068595;23;20041;-84
2022/12/05 04:17:58;;;;;;;23.90;13.57;;;4.90;99.90;;;;;;6067390;23;20376;-81
2022/12/05 04:23:20;;;;;;;;;;;4.90;99.90;;;;;;6066882;23;20041;-85
2022/12/05 04:26:24;;;;;;;27.10;13.23;;;5.00;99.90;;;;;;6092385;23;19913;-81
2022/12/05 04:29:28;;;;;;;24.95;13.57;;;4.90;99.90;;;;;;6044357;23;20430;-82
2022/12/05 04:32:01;;;;;;;25.50;13.98;;;5.30;99.90;;;;;;6038213;23;20019;-80
2022/12/05 04:34:30;;;;;;;28.58;13.93;;;5.00;99.90;;;;;;6119439;23;20024;-79
2022/12/05 04:37:03;;;;;;;26.20;13.85;;;5.30;99.90;;;;;;6071910;23;20014;-82
2022/12/05 04:39:32;;;;;;;23.80;12.93;;;5.10;99.90;;;;;;6071963;23;20020;-85
2022/12/05 04:42:02;;;;;;;27.45;12.55;;;5.30;99.90;;;;;;6096550;23;20018;-81
2022/12/05 04:44:35;;;;;;;22.13;13.35;;;5.20;99.90;;;;;;6069881;23;20045;-80
2022/12/05 04:47:04;;;;;;;23.63;13.38;;;5.40;99.90;;;;;;6097662;23;20010;-83
2022/12/05 04:49:33;;;;;;;22.05;12.60;;;5.00;99.90;;;;;;6123245;23;20090;-83
2022/12/05 04:52:05;;;;;;;27.80;13.00;;;5.30;99.90;;;;;;6122993;23;20018;-84
2022/12/05 04:54:41;;;;;;;22.40;12.73;;;5.20;99.90;;;;;;6096048;23;20018;-82
2022/12/05 04:57:28;;;;;;;24.40;12.23;;;5.30;99.90;;;;;;6075754;23;20503;-79
2022/12/05 04:59:54;;;;;;;25.75;12.15;;;5.00;99.90;;;;;;6124301;23;20018;-78
2022/12/05 05:02:27;;;;;;;22.67;13.57;;;5.30;99.90;;;;;;6097544;23;20022;-79
2022/12/05 05:04:56;;;;;;;27.13;13.32;;;5.30;99.90;;;;;;6072474;23;20080;-80
2022/12/05 05:07:22;;;;;;;22.75;13.52;;;5.20;99.90;;;;;;6156316;23;20047;-82
2022/12/05 05:09:48;;;;;;;23.98;12.73;;;5.30;99.90;;;;;;6188761;23;20055;-82
2022/12/05 05:12:13;;;;;;;21.63;12.98;;;5.30;99.90;;;;;;6216041;23;20015;-85
2022/12/05 05:14:39;;;;;;;25.80;12.98;;;5.30;99.90;;;;;;6191082;23;20016;-83
2022/12/05 05:17:05;;;;;;;29.38;13.27;;;5.00;99.90;;;;;;6191676;23;20039;-80
2022/12/05 05:19:31;;;;;;;21.70;13.32;;;5.00;99.90;;;;;;6243930;22;20070;-86
2022/12/05 05:21:57;;;;;;;24.70;13.57;;;5.00;99.90;;;;;;6217510;23;20016;-80
2022/12/05 05:24:25;;;;;;;20.35;12.48;;;5.20;99.90;;;;;;6217168;23;20066;-83
2022/12/05 05:26:51;;;;;;;22.73;12.27;;;5.20;99.90;;;;;;6216900;23;20044;-82
2022/12/05 05:29:17;;;;;;;24.25;12.80;;;5.30;99.90;;;;;;6190666;23;20242;-84
2022/12/05 05:31:44;;;;;;;23.00;12.35;;;5.30;99.90;;;;;;6217243;23;20116;-83
2022/12/05 05:34:10;;;;;;;21.58;12.40;;;5.30;99.90;;;;;;6190707;23;20101;-79
2022/12/05 05:36:37;;;;;;;26.55;12.82;;;5.00;99.90;;;;;;6216205;23;20090;-81
2022/12/05 05:39:05;;;;;;;28.15;12.35;;;5.30;99.90;;;;;;6192036;23;20047;-85
2022/12/05 05:41:33;;;;;;;26.52;12.07;;;5.30;99.90;;;;;;6216385;23;20016;-84
2022/12/05 05:44:02;;;;;;;22.73;12.75;;;5.10;99.90;;;;;;6216995;23;20484;-82
2022/12/05 05:46:31;;;;;;;23.88;13.35;;;5.30;99.90;;;;;;6190899;23;20077;-84
2022/12/05 05:48:58;;;;;;;23.02;12.50;;;5.10;99.90;;;;;;6192518;23;20012;-83
2022/12/05 05:51:26;;;;;;;26.85;12.43;;;5.10;99.90;;;;;;6215065;23;20317;-81
2022/12/05 05:53:52;;;;;;;22.50;12.85;;;5.20;99.90;;;;;;6214780;23;20023;-82
2022/12/05 05:56:19;;;;;;;22.58;12.73;;;5.00;99.90;;;;;;6217286;23;20384;-83
2022/12/05 05:58:45;;;;;;;25.40;13.13;;;5.30;99.90;;;;;;6192932;23;20316;-85
2022/12/05 06:01:15;;;;;;;23.23;12.55;;;5.10;99.90;;;;;;6193902;23;20019;-85
2022/12/05 06:03:41;;;;;;;22.40;12.10;;;5.30;99.90;;;;;;6191497;23;20012;-84
2022/12/05 06:06:09;;;;;;;21.85;12.82;;;5.30;99.90;;;;;;6216641;23;20350;-82
2022/12/05 06:08:37;;;;;;;24.95;12.77;;;5.10;99.90;;;;;;6216764;23;20012;-83
2022/12/05 06:11:22;;;;;;;24.13;11.70;;;5.10;99.90;;;;;;6190965;23;20012;-82
2022/12/05 06:13:47;;;;;;;22.52;11.95;;;5.30;99.90;;;;;;6189050;23;20055;-84
2022/12/05 06:16:14;;;;;;;23.83;12.52;;;5.30;99.90;;;;;;6217698;23;20424;-84
2022/12/05 06:18:40;;;;;;;24.00;12.32;;;5.20;99.90;;;;;;6213879;23;20448;-82
2022/12/05 06:21:10;;;;;;;20.90;11.13;;;5.00;99.90;;;;;;6188704;23;20087;-84
2022/12/05 06:23:37;;;;;;;28.52;11.98;;;5.30;99.90;;;;;;6197699;23;20078;-82
2022/12/05 06:26:05;;;;;;;25.20;11.93;;;5.10;99.90;;;;;;6184955;23;20016;-83
2022/12/05 06:28:31;;;;;;;24.58;12.18;;;5.10;99.90;;;;;;6213394;23;20383;-83
2022/12/05 06:30:57;;;;;;;23.48;11.95;;;5.00;99.90;;;;;;6161628;23;20717;-81
2022/12/05 06:33:23;;;;;;;19.88;10.63;;;5.00;99.90;;;;;;6160446;23;20023;-82
2022/12/05 06:36:01;;;;;;;19.70;11.48;;;5.10;99.90;;;;;;6185085;23;20031;-80
2022/12/05 06:38:26;;;;;;;24.80;12.32;;;5.10;99.90;;;;;;6183531;23;20016;-80
2022/12/05 06:40:53;;;;;;;26.80;12.70;;;5.10;99.90;;;;;;6158395;23;20272;-82
2022/12/05 06:43:19;;;;;;;22.90;12.30;;;5.30;99.90;;;;;;6186765;23;20012;-82
2022/12/05 06:45:45;;;;;;;27.85;12.20;;;5.30;99.90;;;;;;6158654;23;20065;-82
2022/12/05 06:48:10;;;;;;;23.80;12.32;;;5.40;99.90;;;;;;6158444;23;20736;-81
2022/12/05 06:50:36;;;;;;;25.83;12.55;;;5.40;99.90;;;;;;6159418;23;20413;-81
2022/12/05 06:53:01;;;;;;;24.10;12.38;;;5.20;99.90;;;;;;6181795;23;20100;-81
2022/12/05 06:55:27;;;;;;;24.85;12.40;;;5.40;99.90;;;;;;6157760;23;20363;-84
2022/12/05 06:57:53;;;;;;;30.90;12.35;;;5.20;99.90;;;;;;6161125;23;20067;-80
2022/12/05 07:03:04;;;;;;;27.98;12.30;;;5.10;99.90;;;;;;6185494;23;20290;-83
2022/12/05 07:05:32;;;;;;;30.33;14.02;;;5.10;99.90;;;;;;6160788;23;20079;-84
2022/12/05 07:07:58;;;;;;;31.38;13.70;;;5.10;99.90;;;;;;6187368;23;20048;-84
2022/12/05 07:10:23;;;;;;;32.42;14.50;;;5.10;99.90;;;;;;6159933;23;20035;-81
2022/12/05 07:12:51;;;;;;;26.38;12.77;;;5.10;99.90;;;;;;6162083;23;20004;-83
2022/12/05 07:15:16;;;;;;;32.03;12.48;;;5.10;99.90;;;;;;6162281;23;20044;-84
2022/12/05 07:17:42;;;;;;;33.65;13.65;;;5.20;99.90;;;;;;6184707;23;20012;-86
2022/12/05 07:20:16;;;;;;;28.95;13.00;;;5.10;99.90;;;;;;6157858;23;20095;-82
2022/12/05 07:22:42;;;;;;;27.20;12.73;;;5.50;99.90;;;;;;6158050;23;20070;-80
2022/12/05 07:25:08;;;;;;;29.25;13.02;;;5.40;99.90;;;;;;6180099;23;20113;-83
2022/12/05 07:27:34;;;;;;;27.17;12.23;;;5.40;99.90;;;;;;6211748;23;20016;-85
2022/12/05 07:30:00;;;;;;;27.63;12.05;;;5.20;99.90;;;;;;6186448;23;20125;-81
2022/12/05 07:32:25;;;;;;;29.77;13.27;;;5.30;99.90;;;;;;6215067;23;20016;-83
2022/12/05 07:34:51;;;;;;;30.27;13.07;;;5.40;99.90;;;;;;6191127;23;20008;-81
2022/12/05 07:41:22;;;;;;;27.27;11.85;;;5.30;99.90;;;;;;6264492;23;20027;-79
2022/12/05 07:43:49;;;;;;;25.55;12.25;;;5.30;99.90;;;;;;6231106;23;20432;-81
2022/12/05 07:46:16;;;;;;;30.00;12.18;;;5.50;99.90;;;;;;6192463;23;20027;-84
2022/12/05 07:48:42;;;;;;;24.48;12.38;;;5.50;99.90;;;;;;6214715;23;20312;-84
2022/12/05 07:51:09;;;;;;;26.23;11.48;;;5.20;99.90;;;;;;6189102;23;20051;-84
2022/12/05 07:53:53;;;;;;;25.17;11.48;;;5.20;99.90;;;;;;6214588;23;20019;-81
2022/12/05 07:56:19;;;;;;;25.75;11.05;;;5.40;99.90;;;;;;6214032;23;20524;-79
2022/12/05 07:58:49;;;;;;;27.33;10.73;;;5.60;99.90;;;;;;6192557;23;20108;-81
2022/12/05 08:01:21;;;;;;;25.38;11.27;;;5.30;99.90;;;;;;6218601;23;20113;-80
2022/12/05 08:03:47;;;;;;;22.85;11.13;;;5.10;99.90;;;;;;6191853;23;20012;-82
2022/12/05 08:06:21;;;;;;;22.65;11.18;;;5.50;99.90;;;;;;6216883;23;20174;-83
2022/12/05 08:08:51;;;;;;;20.40;10.82;;;5.30;99.90;;;;;;6212867;23;20152;-81
2022/12/05 08:11:22;;;;;;;28.63;11.00;;;5.60;99.90;;;;;;6217562;23;20042;-81
2022/12/05 08:13:49;;;;;;;26.60;11.00;;;5.50;99.90;;;;;;6218121;23;20031;-82
2022/12/05 08:16:17;;;;;;;25.80;10.70;;;5.30;99.90;;;;;;6192391;23;20073;-81
2022/12/05 08:18:43;;;;;;;22.75;11.15;;;5.40;99.90;;;;;;6218134;23;20456;-78
2022/12/05 08:21:12;;;;;;;26.38;10.48;;;5.30;99.90;;;;;;6217009;23;20289;-80
2022/12/05 08:23:38;;;;;;;29.20;10.85;;;5.50;99.90;;;;;;6213591;23;20186;-85
2022/12/05 08:26:11;;;;;;;23.45;10.45;;;5.30;99.90;;;;;;6217041;23;20051;-85
2022/12/05 08:28:37;;;;;;;26.27;10.73;;;5.60;99.90;;;;;;6246656;23;20137;-83
2022/12/05 08:31:09;;;;;;;20.85;10.40;;;5.30;99.90;;;;;;6217780;23;20015;-82
2022/12/05 08:33:35;;;;;;;21.48;9.93;;;5.40;99.90;;;;;;6191337;23;20109;-78
2022/12/05 08:36:07;;;;;;;22.95;10.18;;;5.60;99.90;;;;;;6213686;23;20408;-81
2022/12/05 08:38:32;;;;;;;22.55;11.10;;;5.30;99.90;;;;;;6210991;23;20046;-81
2022/12/05 08:41:03;;;;;;;23.65;10.68;;;5.50;99.90;;;;;;6213216;23;20452;-80
2022/12/05 08:43:30;;;;;;;43.65;11.52;;;5.30;99.90;;;;;;6187083;23;20016;-79
2022/12/05 08:45:56;;;;;;;23.25;11.43;;;5.50;99.90;;;;;;6190146;23;20016;-78
2022/12/05 08:48:22;;;;;;;23.45;10.75;;;5.60;99.90;;;;;;6191762;23;20043;-83
2022/12/05 08:50:48;;;;;;;22.52;11.40;;;5.40;99.90;;;;;;6243241;23;20024;-80
2022/12/05 08:53:55;;;;;;;23.33;11.07;;;5.60;99.90;;;;;;6201289;23;20019;-76
2022/12/05 08:56:20;;;;;;;;;;;5.50;99.90;;;;;;6228674;23;20012;-82
2022/12/05 08:58:46;;;;;;;25.50;10.63;;;5.30;99.90;;;;;;6199129;23;20341;-83
2022/12/05 09:01:18;;;;;;;25.17;10.63;;;5.30;99.90;;;;;;6191756;23;20016;-77
2022/12/05 09:03:44;;;;;;;21.63;10.38;;;5.60;99.90;;;;;;6243110;23;20004;-82
2022/12/05 09:06:19;;;;;;;27.63;12.70;;;5.30;99.90;;;;;;6190079;23;20087;-79
2022/12/05 09:08:45;;;;;;;;;;;5.30;99.90;;;;;;6241050;23;20012;-82
2022/12/05 09:11:12;;;;;;;24.88;11.02;;;5.50;99.90;;;;;;6187211;23;19966;-78
2022/12/05 09:13:38;;;;;;;26.40;12.13;;;5.60;99.90;;;;;;6188449;23;20558;-79
2022/12/05 09:16:06;;;;;;;19.33;10.45;;;5.30;99.90;;;;;;6189171;23;20024;-78
2022/12/05 09:18:32;;;;;;;25.42;11.27;;;5.60;99.90;;;;;;6190932;22;20337;-77
2022/12/05 09:21:03;;;;;;;27.27;11.55;;;5.30;99.90;;;;;;6188673;23;20078;-82
2022/12/05 09:23:29;;;;;;;26.30;11.23;;;5.60;99.90;;;;;;6188535;23;20468;-84
2022/12/05 09:26:00;;;;;;;22.58;11.38;;;5.50;99.90;;;;;;6191528;23;20067;-82
2022/12/05 09:28:27;;;;;;;25.30;10.57;;;5.30;99.90;;;;;;6216994;23;20016;-80
2022/12/05 09:31:02;;;;;;;26.50;11.43;;;5.60;99.90;;;;;;6191288;23;20083;-78
2022/12/05 09:33:30;;;;;;;18.33;10.60;;;5.40;99.90;;;;;;6243735;23;20016;-80
2022/12/05 09:35:56;;;;;;;28.90;12.35;;;5.60;99.90;;;;;;6245014;23;20404;-82
2022/12/05 09:38:22;;;;;;;24.67;10.98;;;5.30;99.90;;;;;;6218804;23;20015;-80
2022/12/05 09:41:08;;;;;;;22.80;11.02;;;5.60;99.90;;;;;;6193118;23;20016;-78
2022/12/05 09:43:56;;;;;;;23.83;11.02;;;5.60;99.90;;;;;;6214786;23;20040;-79
2022/12/05 09:46:50;;;;;;;26.63;11.90;;;5.60;99.90;;;;;;6189843;23;20008;-78
2022/12/05 09:49:16;;;;;;;28.65;10.93;;;5.40;99.90;;;;;;6193827;23;20020;-81
2022/12/05 09:51:45;;;;;;;25.35;11.57;;;5.50;99.90;;;;;;6216469;23;20030;-82
2022/12/05 09:54:13;;;;;;;26.13;12.25;;;5.50;99.90;;;;;;6215966;23;20047;-81
2022/12/05 09:56:42;;;;;;;27.70;11.77;;;5.30;99.90;;;;;;6190657;23;20459;-80
2022/12/05 09:59:14;;;;;;;25.10;11.90;;;5.60;99.90;;;;;;6215039;23;20126;-86
2022/12/05 10:02:32;;;;;;;20.80;10.70;;;5.60;99.90;;;;;;6215758;23;20020;-82
2022/12/05 10:05:18;;;;;;;20.63;11.70;;;5.70;99.90;;;;;;5981324;23;20024;-81
2022/12/05 10:07:55;;;;;;;25.08;12.27;;;5.40;99.90;;;;;;6003912;23;20016;-81
2022/12/05 10:10:30;;;;;;;30.27;12.90;;;5.50;99.90;;;;;;5955181;23;20012;-82
2022/12/05 10:13:20;;;;;;;27.35;11.45;;;5.60;99.90;;;;;;5981195;23;20185;-77
2022/12/05 10:16:01;;;;;;;28.77;12.40;;;5.50;99.90;;;;;;6003457;23;20016;-82
2022/12/05 10:18:38;;;;;;;27.33;12.32;;;5.50;99.90;;;;;;5982479;23;20344;-79
2022/12/05 10:21:07;;;;;;;27.20;12.57;;;5.70;99.90;;;;;;6004899;23;20504;-83
2022/12/05 10:23:54;;;;;;;26.35;12.68;;;5.60;99.90;;;;;;5979876;23;20431;-82
2022/12/05 10:26:22;;;;;;;30.38;12.73;;;5.60;99.90;;;;;;5958390;23;20052;-82
2022/12/05 10:29:28;;;;;;;25.40;12.05;;;5.50;99.90;;;;;;5983166;23;20023;-81
2022/12/05 10:32:04;;;;;;;27.77;12.73;;;5.60;99.90;;;;;;5984138;23;20443;-81
2022/12/05 10:34:39;;;;;;;20.08;11.02;;;5.60;99.90;;;;;;6004451;23;20095;-82
2022/12/05 10:37:17;;;;;;;26.67;12.15;;;5.30;99.90;;;;;;6004684;23;20019;-84
2022/12/05 10:39:43;;;;;;;24.38;12.57;;;5.70;99.90;;;;;;6004812;23;20043;-83
2022/12/05 10:42:16;;;;;;;24.45;11.73;;;5.40;99.90;;;;;;6167151;23;20023;-80
2022/12/05 10:44:42;;;;;;;28.30;12.65;;;5.40;99.90;;;;;;6221249;23;20008;-76
2022/12/05 10:47:08;;;;;;;26.85;13.02;;;5.60;99.90;;;;;;6197087;23;20055;-79
2022/12/05 10:49:35;;;;;;;26.65;13.00;;;5.50;99.90;;;;;;6249583;23;20057;-81
2022/12/05 10:52:04;;;;;;;23.63;11.00;;;5.20;99.90;;;;;;6225992;23;20051;-81
2022/12/05 10:54:39;;;;;;;21.92;11.23;;;5.30;99.90;;;;;;6221611;23;20144;-80
2022/12/05 10:57:21;;;;;;;27.73;12.43;;;5.60;99.90;;;;;;6248028;23;20023;-80
2022/12/05 10:59:47;;;;;;;24.00;10.98;;;5.50;99.90;;;;;;6219925;23;20066;-83
2022/12/05 11:02:33;;;;;;;26.58;11.55;;;5.40;99.90;;;;;;6215501;23;20031;-80
2022/12/05 11:05:02;;;;;;;21.48;10.98;;;5.30;99.90;;;;;;6213605;23;20090;-83
2022/12/05 11:07:29;;;;;;;24.05;11.05;;;5.40;99.90;;;;;;6190545;23;20047;-80
2022/12/05 11:09:57;;;;;;;29.60;10.77;;;5.50;99.90;;;;;;6188759;23;20008;-80
2022/12/05 11:12:28;;;;;;;22.20;10.98;;;5.60;99.90;;;;;;6238520;23;20050;-79
2022/12/05 11:15:15;;;;;;;26.02;11.50;;;5.50;99.90;;;;;;6190237;23;20103;-81
2022/12/05 11:17:41;;;;;;;26.55;10.77;;;5.50;99.90;;;;;;6190442;23;20074;-81
2022/12/05 11:20:19;;;;;;;24.83;11.82;;;5.30;99.90;;;;;;6242326;22;20340;-82
2022/12/05 11:22:49;;;;;;;20.58;10.82;;;5.60;99.90;;;;;;6190947;23;20089;-82
2022/12/05 11:25:41;;;;;;;19.80;10.50;;;5.30;99.90;;;;;;6163070;23;20203;-80
2022/12/05 11:28:16;;;;;;;26.45;10.15;;;5.60;99.90;;;;;;6177255;23;20020;-81
2022/12/05 11:31:01;;;;;;;20.52;9.50;;;5.40;99.90;;;;;;6209308;23;20020;-84
2022/12/05 11:33:32;;;;;;;17.63;9.65;;;5.60;99.90;;;;;;6181321;23;20012;-81
2022/12/05 11:36:04;;;;;;;19.35;9.18;;;5.60;99.90;;;;;;6182831;23;20017;-82
2022/12/05 11:38:31;;;;;;;18.02;9.95;;;5.30;99.90;;;;;;6157404;23;20124;-81
2022/12/05 11:41:19;;;;;;;20.02;9.10;;;5.20;99.90;;;;;;6183697;23;20020;-78
2022/12/05 11:44:00;;;;;;;21.67;8.90;;;5.50;99.90;;;;;;6183605;23;20026;-80
2022/12/05 11:46:26;;;;;;;19.67;9.38;;;5.50;99.90;;;;;;6159026;23;20009;-79
2022/12/05 11:49:06;;;;;;;21.20;8.88;;;5.50;99.90;;;;;;6159501;23;20086;-82
2022/12/05 11:51:47;;;;;;;22.42;8.50;;;5.30;99.90;;;;;;6158534;23;20019;-84
2022/12/05 11:54:34;;;;;;;15.90;8.05;;;5.20;99.90;;;;;;6181358;23;20024;-82
2022/12/05 11:57:21;;;;;;;22.65;8.43;;;5.20;99.90;;;;;;6157300;23;20020;-83
2022/12/05 12:00:01;;;;;;;19.10;8.45;;;5.20;99.90;;;;;;6159640;23;20017;-80
2022/12/05 12:02:53;;;;;;;17.35;7.30;;;5.40;99.90;;;;;;6181742;23;20027;-81
2022/12/05 12:05:39;;;;;;;16.05;8.50;;;5.30;99.90;;;;;;6160289;23;20491;-81
2022/12/05 12:08:36;;;;;;;14.68;7.10;;;5.40;99.90;;;;;;6155782;23;20059;-82
2022/12/05 12:11:22;;;;;;;16.67;7.97;;;5.50;99.90;;;;;;6159113;23;20016;-81
2022/12/05 12:14:10;;;;;;;15.27;7.15;;;5.50;99.90;;;;;;6212377;23;20032;-81
2022/12/05 12:16:39;;;;;;;14.70;6.63;;;5.20;99.90;;;;;;6183939;23;20024;-80
2022/12/05 12:19:55;;;;;;;17.98;7.50;;;5.50;99.90;;;;;;6183827;23;20445;-81
2022/12/05 12:22:56;;;;;;;14.48;7.35;;;5.30;99.90;;;;;;6036400;23;20462;-81
2022/12/05 12:25:40;;;;;;;15.18;7.15;;;5.20;99.90;;;;;;6035975;23;20085;-78
2022/12/05 12:28:20;;;;;;;14.77;7.23;;;5.20;99.90;;;;;;6062542;23;20018;-85
2022/12/05 12:31:13;;;;;;;16.50;7.38;;;5.20;99.90;;;;;;6039021;23;20334;-83
2022/12/05 12:33:49;;;;;;;14.35;7.35;;;5.50;99.90;;;;;;6039706;23;20023;-78
2022/12/05 12:36:25;;;;;;;13.88;6.68;;;5.50;99.90;;;;;;6016012;23;20015;-82
2022/12/05 12:39:02;;;;;;;15.50;6.75;;;5.40;99.90;;;;;;6039370;23;20037;-82
2022/12/05 12:41:58;;;;;;;14.75;6.85;;;5.50;99.90;;;;;;6012553;23;20062;-82
2022/12/05 12:44:49;;;;;;;12.15;6.50;;;5.20;99.90;;;;;;6061154;23;20073;-80
2022/12/05 12:47:53;;;;;;;15.93;6.93;;;5.50;99.90;;;;;;6062406;23;20080;-82
2022/12/05 12:50:23;;;;;;;16.20;6.65;;;5.50;99.90;;;;;;6013390;23;20098;-81
2022/12/05 12:53:04;;;;;;;21.08;6.57;;;5.50;99.90;;;;;;6058980;23;20344;-82
2022/12/05 12:55:59;;;;;;;14.25;6.32;;;5.20;99.90;;;;;;6037206;23;20019;-76
2022/12/05 12:58:25;;;;;;;13.60;5.85;;;5.20;99.90;;;;;;6084365;23;20119;-80
2022/12/05 13:01:11;;;;;;;14.38;6.40;;;5.40;99.90;;;;;;6158047;23;20059;-81
2022/12/05 13:03:43;;;;;;;14.32;6.90;;;5.50;99.90;;;;;;6158253;23;20032;-81
2022/12/05 13:06:17;;;;;;;11.82;6.43;;;5.60;99.90;;;;;;6182740;23;20872;-80
2022/12/05 13:08:49;;;;;;;9.98;5.38;;;5.40;99.90;;;;;;6180715;23;20040;-80
2022/12/05 13:11:17;;;;;;;12.13;5.32;;;5.20;99.90;;;;;;6134529;23;20079;-79
2022/12/05 13:13:49;;;;;;;15.65;6.10;;;5.50;99.90;;;;;;6183166;23;20552;-81
2022/12/05 13:16:35;;;;;;;15.95;5.63;;;5.50;99.90;;;;;;6160114;23;20436;-79
2022/12/05 13:19:04;;;;;;;11.77;5.70;;;5.40;99.90;;;;;;6183516;23;20021;-85
2022/12/05 13:21:30;;;;;;;14.98;5.72;;;5.20;99.90;;;;;;6183575;23;20017;-82
2022/12/05 13:24:02;;;;;;;11.60;5.35;;;5.30;99.90;;;;;;6185469;23;20013;-80
2022/12/05 13:26:28;;;;;;;15.70;5.53;;;5.40;99.90;;;;;;6227656;23;20107;-81
2022/12/05 13:29:02;;;;;;;18.52;5.75;;;5.20;99.90;;;;;;6198603;23;20031;-80